createdAt,value
2023-05-05T00:00:57.618Z,30.79
2023-05-05T00:01:57.714Z,30.85
2023-05-05T00:02:57.887Z,30.81
2023-05-05T00:03:57.902Z,30.82
2023-05-05T00:04:57.957Z,30.86
2023-05-05T00:05:58.079Z,30.91
2023-05-05T00:06:58.132Z,30.87
2023-05-05T00:07:58.236Z,30.93
2023-05-05T00:08:58.322Z,30.90
2023-05-05T00:09:58.397Z,30.95
2023-05-05T00:10:58.510Z,30.95
2023-05-05T00:11:58.572Z,30.98
2023-05-05T00:12:58.678Z,30.95
2023-05-05T00:13:58.748Z,30.97
2023-05-05T00:14:58.853Z,30.98
2023-05-05T00:15:58.950Z,31.04
2023-05-05T00:16:59.080Z,31.02
2023-05-05T00:17:59.213Z,31.06
2023-05-05T00:18:59.335Z,31.04
2023-05-05T00:19:59.321Z,31.10
2023-05-05T00:20:59.429Z,31.03
2023-05-05T00:21:59.501Z,31.10
2023-05-05T00:22:59.595Z,31.11
2023-05-05T00:23:59.704Z,31.10
2023-05-05T00:24:59.790Z,31.17
2023-05-05T00:25:59.871Z,31.12
2023-05-05T00:26:59.988Z,31.14
2023-05-05T00:28:00.075Z,31.12
2023-05-05T00:29:00.148Z,31.13
2023-05-05T00:30:00.247Z,31.16
2023-05-05T00:31:00.415Z,31.15
2023-05-05T00:32:00.418Z,31.20
2023-05-05T00:33:00.546Z,31.15
2023-05-05T00:34:00.613Z,31.12
2023-05-05T00:35:00.705Z,31.19
2023-05-05T00:36:00.741Z,31.20
2023-05-05T00:37:00.825Z,31.19
2023-05-05T00:38:00.878Z,31.22
2023-05-05T00:39:00.971Z,31.21
2023-05-05T00:40:01.063Z,31.21
2023-05-05T00:41:01.160Z,31.21
2023-05-05T00:42:01.299Z,31.28
2023-05-05T00:43:01.332Z,31.28
2023-05-05T00:44:01.407Z,31.35
2023-05-05T00:45:01.479Z,31.28
2023-05-05T00:46:01.617Z,31.29
2023-05-05T00:47:01.679Z,31.31
2023-05-05T00:48:01.871Z,31.35
2023-05-05T00:49:01.863Z,31.33
2023-05-05T00:50:01.857Z,31.29
2023-05-05T00:51:01.919Z,31.35
2023-05-05T00:52:02.001Z,31.29
2023-05-05T00:53:02.063Z,31.35
2023-05-05T00:54:02.127Z,31.33
2023-05-05T00:55:02.214Z,31.31
2023-05-05T00:56:02.306Z,31.36
2023-05-05T00:57:02.384Z,31.37
2023-05-05T00:58:02.467Z,31.38
2023-05-05T00:59:02.514Z,31.36
2023-05-05T01:00:02.587Z,31.42
2023-05-05T01:01:02.649Z,31.43
2023-05-05T01:02:02.755Z,31.41
2023-05-05T01:03:02.769Z,31.44
2023-05-05T01:04:02.868Z,31.43
2023-05-05T01:05:02.840Z,31.37
2023-05-05T01:06:02.934Z,31.41
2023-05-05T01:07:03.046Z,31.43
2023-05-05T01:08:03.113Z,31.45
2023-05-05T01:09:03.199Z,31.49
2023-05-05T01:10:15.614Z,31.45
2023-05-05T01:11:03.314Z,31.48
2023-05-05T01:12:03.344Z,31.51
2023-05-05T01:13:03.396Z,31.48
2023-05-05T01:14:03.411Z,31.47
2023-05-05T01:15:03.431Z,31.47
2023-05-05T01:16:03.508Z,31.52
2023-05-05T01:17:03.483Z,31.52
2023-05-05T01:18:03.547Z,31.49
2023-05-05T01:19:03.538Z,31.50
2023-05-05T01:20:03.562Z,31.48
2023-05-05T01:21:03.593Z,31.50
2023-05-05T01:22:03.623Z,31.50
2023-05-05T01:23:03.655Z,31.50
2023-05-05T01:24:03.689Z,31.56
2023-05-05T01:25:03.720Z,31.56
2023-05-05T01:26:03.742Z,31.53
2023-05-05T01:27:03.765Z,31.53
2023-05-05T01:28:03.801Z,31.53
2023-05-05T01:29:03.850Z,31.62
2023-05-05T01:30:03.903Z,31.59
2023-05-05T01:31:03.943Z,31.57
2023-05-05T01:32:04.015Z,31.60
2023-05-05T01:33:03.979Z,31.61
2023-05-05T01:34:04.038Z,31.60
2023-05-05T01:35:04.050Z,31.63
2023-05-05T01:36:04.079Z,31.61
2023-05-05T01:37:04.112Z,31.61
2023-05-05T01:38:04.168Z,31.62
2023-05-05T01:39:04.178Z,31.62
2023-05-05T01:40:04.310Z,31.62
2023-05-05T01:41:04.234Z,31.61
2023-05-05T01:42:04.266Z,31.58
2023-05-05T01:43:04.309Z,31.61
2023-05-05T01:44:04.364Z,31.62
2023-05-05T01:45:04.391Z,31.61
2023-05-05T01:46:04.460Z,31.62
2023-05-05T01:47:04.467Z,31.64
2023-05-05T01:48:04.489Z,31.65
2023-05-05T01:49:04.497Z,31.65
2023-05-05T01:50:04.535Z,31.64
2023-05-05T01:51:04.566Z,31.69
2023-05-05T01:52:04.639Z,31.70
2023-05-05T01:53:04.692Z,31.66
2023-05-05T01:54:04.750Z,31.65
2023-05-05T01:55:04.848Z,31.70
2023-05-05T01:56:04.878Z,31.66
2023-05-05T01:57:04.944Z,31.73
2023-05-05T01:58:04.964Z,31.65
2023-05-05T01:59:05.017Z,31.66
2023-05-05T02:00:05.093Z,31.68
2023-05-05T02:01:05.132Z,31.68
2023-05-05T02:02:05.250Z,31.69
2023-05-05T02:03:05.260Z,31.72
2023-05-05T02:04:05.223Z,31.74
2023-05-05T02:05:05.278Z,31.70
2023-05-05T02:06:05.343Z,31.74
2023-05-05T02:07:05.379Z,31.77
2023-05-05T02:08:05.412Z,31.71
2023-05-05T02:09:05.457Z,31.77
2023-05-05T02:10:05.631Z,31.76
2023-05-05T02:11:05.525Z,31.78
2023-05-05T02:12:05.559Z,31.76
2023-05-05T02:13:05.700Z,31.78
2023-05-05T02:14:05.630Z,31.77
2023-05-05T02:15:05.702Z,31.74
2023-05-05T02:16:05.825Z,31.77
2023-05-05T02:17:05.790Z,31.82
2023-05-05T02:18:05.880Z,31.84
2023-05-05T02:19:05.862Z,31.76
2023-05-05T02:20:05.985Z,31.77
2023-05-05T02:21:05.936Z,31.70
2023-05-05T02:22:05.988Z,31.76
2023-05-05T02:23:06.118Z,31.80
2023-05-05T02:24:06.090Z,31.80
2023-05-05T02:25:06.106Z,31.77
2023-05-05T02:26:06.172Z,31.78
2023-05-05T02:27:06.189Z,31.78
2023-05-05T02:28:06.247Z,31.83
2023-05-05T02:29:06.287Z,31.78
2023-05-05T02:30:06.735Z,31.81
2023-05-05T02:31:06.394Z,31.82
2023-05-05T02:32:06.407Z,31.85
2023-05-05T02:33:06.597Z,31.83
2023-05-05T02:34:06.505Z,31.86
2023-05-05T02:35:06.527Z,31.86
2023-05-05T02:36:06.572Z,31.85
2023-05-05T02:37:06.607Z,31.89
2023-05-05T02:38:06.680Z,31.86
2023-05-05T02:39:06.698Z,31.90
2023-05-05T02:40:06.999Z,31.85
2023-05-05T02:41:06.763Z,31.88
2023-05-05T02:42:06.790Z,31.87
2023-05-05T02:43:06.951Z,31.90
2023-05-05T02:44:06.871Z,31.87
2023-05-05T02:45:06.900Z,31.90
2023-05-05T02:46:06.961Z,31.91
2023-05-05T02:47:06.968Z,31.89
2023-05-05T02:48:07.038Z,31.90
2023-05-05T02:49:07.045Z,31.90
2023-05-05T02:50:07.430Z,31.87
2023-05-05T02:51:07.126Z,31.90
2023-05-05T02:52:07.166Z,31.87
2023-05-05T02:53:07.216Z,31.90
2023-05-05T02:54:07.234Z,31.95
2023-05-05T02:55:07.279Z,31.94
2023-05-05T02:56:07.312Z,31.95
2023-05-05T02:57:07.347Z,31.91
2023-05-05T02:58:07.388Z,31.95
2023-05-05T02:59:07.424Z,31.93
2023-05-05T03:00:07.713Z,31.97
2023-05-05T03:01:07.571Z,31.94
2023-05-05T03:02:07.548Z,31.95
2023-05-05T03:03:07.692Z,31.94
2023-05-05T03:04:07.723Z,31.91
2023-05-05T03:05:07.680Z,31.95
2023-05-05T03:06:07.759Z,31.94
2023-05-05T03:07:07.782Z,31.97
2023-05-05T03:08:07.826Z,31.94
2023-05-05T03:09:07.863Z,31.98
2023-05-05T03:10:08.283Z,31.94
2023-05-05T03:11:07.948Z,31.99
2023-05-05T03:12:08.000Z,31.95
2023-05-05T03:13:08.208Z,31.96
2023-05-05T03:14:08.088Z,32.02
2023-05-05T03:15:08.134Z,31.99
2023-05-05T03:16:08.197Z,31.98
2023-05-05T03:17:08.214Z,32.02
2023-05-05T03:18:08.257Z,31.99
2023-05-05T03:19:08.295Z,32.02
2023-05-05T03:20:08.462Z,31.99
2023-05-05T03:21:08.394Z,32.02
2023-05-05T03:22:08.448Z,32.00
2023-05-05T03:23:08.469Z,32.00
2023-05-05T03:24:08.502Z,31.97
2023-05-05T03:25:08.557Z,32.02
2023-05-05T03:26:08.581Z,32.05
2023-05-05T03:27:08.648Z,32.03
2023-05-05T03:28:08.670Z,32.07
2023-05-05T03:29:08.722Z,32.04
2023-05-05T03:30:09.064Z,32.07
2023-05-05T03:31:08.817Z,32.05
2023-05-05T03:32:08.870Z,32.09
2023-05-05T03:33:08.925Z,32.08
2023-05-05T03:34:08.938Z,32.08
2023-05-05T03:35:08.975Z,32.08
2023-05-05T03:36:09.040Z,32.11
2023-05-05T03:37:09.072Z,32.09
2023-05-05T03:38:09.146Z,32.14
2023-05-05T03:39:09.161Z,32.11
2023-05-05T03:40:09.366Z,32.15
2023-05-05T03:41:09.260Z,32.15
2023-05-05T03:42:09.310Z,32.14
2023-05-05T03:43:09.342Z,32.07
2023-05-05T03:44:09.396Z,32.12
2023-05-05T03:45:09.445Z,32.12
2023-05-05T03:46:09.533Z,32.12
2023-05-05T03:47:09.545Z,32.15
2023-05-05T03:48:09.732Z,32.19
2023-05-05T03:49:09.641Z,32.11
2023-05-05T03:50:09.782Z,32.16
2023-05-05T03:51:09.746Z,32.16
2023-05-05T03:52:09.800Z,32.18
2023-05-05T03:53:09.858Z,32.14
2023-05-05T03:54:09.911Z,32.19
2023-05-05T03:55:09.947Z,32.19
2023-05-05T03:56:10.001Z,32.16
2023-05-05T03:57:10.053Z,32.19
2023-05-05T03:58:10.088Z,32.14
2023-05-05T03:59:10.130Z,32.19
2023-05-05T04:00:10.192Z,32.19
2023-05-05T04:01:10.242Z,32.19
2023-05-05T04:02:10.304Z,32.20
2023-05-05T04:03:10.554Z,32.17
2023-05-05T04:04:10.444Z,32.24
2023-05-05T04:05:10.428Z,32.18
2023-05-05T04:06:10.485Z,32.22
2023-05-05T04:07:10.548Z,32.21
2023-05-05T04:08:10.598Z,32.19
2023-05-05T04:09:10.634Z,32.20
2023-05-05T04:10:10.760Z,32.24
2023-05-05T04:11:10.728Z,32.20
2023-05-05T04:12:10.783Z,32.19
2023-05-05T04:13:11.037Z,32.24
2023-05-05T04:14:10.883Z,32.25
2023-05-05T04:15:10.962Z,32.21
2023-05-05T04:16:11.079Z,32.22
2023-05-05T04:17:11.052Z,32.25
2023-05-05T04:18:11.156Z,32.26
2023-05-05T04:19:11.151Z,32.26
2023-05-05T04:20:11.284Z,32.25
2023-05-05T04:21:11.259Z,32.24
2023-05-05T04:22:11.321Z,32.30
2023-05-05T04:23:11.375Z,32.24
2023-05-05T04:24:11.419Z,32.28
2023-05-05T04:25:11.473Z,32.28
2023-05-05T04:26:11.547Z,32.25
2023-05-05T04:27:11.567Z,32.25
2023-05-05T04:28:11.617Z,32.24
2023-05-05T04:29:11.660Z,32.30
2023-05-05T04:30:11.716Z,32.26
2023-05-05T04:31:11.785Z,32.31
2023-05-05T04:32:11.812Z,32.29
2023-05-05T04:33:11.864Z,32.26
2023-05-05T04:34:11.919Z,32.28
2023-05-05T04:35:11.977Z,32.30
2023-05-05T04:36:12.018Z,32.31
2023-05-05T04:37:12.074Z,32.30
2023-05-05T04:38:12.128Z,32.26
2023-05-05T04:39:12.168Z,32.30
2023-05-05T04:40:12.241Z,32.30
2023-05-05T04:41:12.279Z,32.31
2023-05-05T04:42:12.350Z,32.28
2023-05-05T04:43:12.377Z,32.32
2023-05-05T04:44:12.435Z,32.30
2023-05-05T04:45:12.485Z,32.32
2023-05-05T04:46:12.568Z,32.30
2023-05-05T04:47:14.550Z,32.31
2023-05-05T04:48:12.620Z,32.33
2023-05-05T04:49:12.658Z,32.30
2023-05-05T04:50:12.718Z,32.28
2023-05-05T04:51:12.752Z,32.33
2023-05-05T04:52:12.762Z,32.30
2023-05-05T04:53:12.801Z,32.33
2023-05-05T04:54:12.838Z,32.32
2023-05-05T04:55:12.859Z,32.33
2023-05-05T04:56:12.905Z,32.32
2023-05-05T04:57:12.940Z,32.33
2023-05-05T04:58:13.000Z,32.30
2023-05-05T04:59:13.005Z,32.34
2023-05-05T05:00:13.061Z,32.34
2023-05-05T05:01:13.096Z,32.34
2023-05-05T05:02:13.177Z,32.32
2023-05-05T05:03:13.224Z,32.33
2023-05-05T05:04:13.197Z,32.34
2023-05-05T05:05:13.268Z,32.32
2023-05-05T05:06:13.254Z,32.30
2023-05-05T05:07:13.288Z,32.29
2023-05-05T05:08:13.318Z,32.38
2023-05-05T05:09:13.334Z,32.29
2023-05-05T05:10:13.361Z,32.32
2023-05-05T05:11:13.389Z,32.32
2023-05-05T05:12:13.426Z,32.29
2023-05-05T05:13:13.497Z,32.30
2023-05-05T05:14:13.518Z,32.30
2023-05-05T05:15:13.532Z,32.26
2023-05-05T05:16:14.022Z,32.31
2023-05-05T05:17:13.594Z,32.28
2023-05-05T05:18:13.945Z,32.24
2023-05-05T05:19:13.683Z,32.24
2023-05-05T05:20:13.689Z,32.40
2023-05-05T05:21:13.952Z,32.36
2023-05-05T05:22:13.741Z,32.43
2023-05-05T05:23:13.779Z,32.39
2023-05-05T05:24:13.826Z,32.29
2023-05-05T05:25:13.857Z,32.32
2023-05-05T05:26:13.887Z,32.33
2023-05-05T05:27:13.927Z,32.32
2023-05-05T05:28:14.450Z,32.36
2023-05-05T05:29:13.973Z,32.32
2023-05-05T05:30:14.025Z,32.35
2023-05-05T05:31:14.035Z,32.34
2023-05-05T05:32:14.129Z,32.32
2023-05-05T05:33:14.094Z,32.29
2023-05-05T05:34:14.138Z,32.33
2023-05-05T05:35:14.158Z,32.36
2023-05-05T05:36:14.184Z,32.33
2023-05-05T05:37:14.218Z,32.31
2023-05-05T05:38:14.279Z,32.25
2023-05-05T05:39:14.282Z,32.30
2023-05-05T05:40:14.318Z,32.29
2023-05-05T05:41:14.452Z,32.36
2023-05-05T05:42:14.423Z,32.46
2023-05-05T05:43:14.487Z,32.69
2023-05-05T05:44:14.578Z,32.71
2023-05-05T05:45:14.628Z,32.96
2023-05-05T05:46:14.987Z,32.90
2023-05-05T05:47:14.777Z,32.74
2023-05-05T05:48:14.970Z,32.82
2023-05-05T05:49:14.903Z,33.06
2023-05-05T05:50:15.010Z,33.07
2023-05-05T05:51:22.841Z,33.37
2023-05-05T05:52:15.063Z,33.35
2023-05-05T05:53:31.061Z,33.72
2023-05-05T05:54:18.352Z,34.09
2023-05-05T05:55:15.160Z,34.31
2023-05-05T05:57:15.214Z,34.58
2023-05-05T05:58:15.255Z,34.74
2023-05-05T05:59:15.457Z,34.92
2023-05-05T06:00:15.599Z,35.01
2023-05-05T06:01:15.325Z,35.00
2023-05-05T06:02:31.300Z,34.72
2023-05-05T06:03:18.900Z,34.80
2023-05-05T06:04:15.450Z,34.63
2023-05-05T06:07:22.869Z,34.98
2023-05-05T06:08:16.855Z,35.09
2023-05-05T06:09:15.530Z,35.23
2023-05-05T06:10:27.345Z,35.12
2023-05-05T06:12:16.655Z,35.31
2023-05-05T06:14:32.281Z,35.30
2023-05-05T06:15:18.873Z,35.28
2023-05-05T06:16:15.708Z,35.35
2023-05-05T06:17:15.725Z,35.52
2023-05-05T06:18:16.340Z,35.52
2023-05-05T06:19:47.738Z,35.61
2023-05-05T06:20:15.808Z,35.50
2023-05-05T06:21:15.805Z,35.46
2023-05-05T06:22:16.821Z,35.34
2023-05-05T06:23:16.240Z,35.27
2023-05-05T06:24:15.885Z,35.30
2023-05-05T06:25:15.888Z,35.32
2023-05-05T06:26:15.964Z,35.22
2023-05-05T06:27:15.957Z,35.29
2023-05-05T06:28:16.184Z,35.31
2023-05-05T06:29:16.483Z,35.20
2023-05-05T06:30:16.030Z,35.08
2023-05-05T06:31:16.076Z,35.13
2023-05-05T06:32:16.176Z,35.13
2023-05-05T06:33:16.980Z,35.07
2023-05-05T06:34:16.494Z,34.97
2023-05-05T06:35:16.346Z,34.86
2023-05-05T06:36:16.476Z,34.82
2023-05-05T06:37:16.493Z,34.70
2023-05-05T06:38:17.554Z,34.72
2023-05-05T06:39:16.998Z,34.59
2023-05-05T06:40:16.683Z,34.42
2023-05-05T06:41:16.732Z,34.33
2023-05-05T06:42:16.794Z,34.31
2023-05-05T06:43:16.853Z,34.36
2023-05-05T06:44:17.998Z,34.24
2023-05-05T06:45:24.367Z,34.26
2023-05-05T06:46:17.360Z,34.17
2023-05-05T06:47:17.542Z,34.15
2023-05-05T06:48:17.032Z,34.24
2023-05-05T06:49:17.500Z,34.15
2023-05-05T06:50:17.126Z,34.20
2023-05-05T06:51:17.048Z,34.25
2023-05-05T06:52:17.079Z,34.19
2023-05-05T06:53:17.098Z,34.13
2023-05-05T12:17:21.294Z,28.15
2023-05-05T12:18:22.094Z,28.09
2023-05-05T12:19:22.071Z,28.05
2023-05-05T12:20:22.069Z,28.09
2023-05-05T12:21:22.059Z,27.99
2023-05-05T12:22:22.101Z,28.04
2023-05-05T12:23:22.076Z,27.99
2023-05-05T12:24:22.069Z,27.95
2023-05-05T12:25:22.104Z,28.02
2023-05-05T12:26:22.057Z,27.95
2023-05-05T12:27:22.069Z,28.01
2023-05-05T12:28:22.059Z,28.01
2023-05-05T12:29:22.054Z,27.97
2023-05-05T12:30:22.135Z,27.97
2023-05-05T12:31:22.090Z,27.99
2023-05-05T12:32:22.103Z,27.95
2023-05-05T12:33:22.278Z,28.00
2023-05-05T12:34:22.061Z,27.97
2023-05-05T12:35:22.072Z,27.97
2023-05-05T12:36:22.276Z,27.93
2023-05-05T12:37:22.098Z,27.93
2023-05-05T12:38:22.097Z,27.91
2023-05-05T12:39:22.079Z,27.96
2023-05-05T12:40:22.085Z,27.95
2023-05-05T12:41:22.086Z,27.93
2023-05-05T12:42:22.136Z,27.96
2023-05-05T12:43:22.191Z,27.95
2023-05-05T12:44:22.268Z,27.95
2023-05-05T12:45:22.327Z,27.97
2023-05-05T12:46:22.520Z,27.90
2023-05-05T12:47:22.778Z,27.90
2023-05-05T12:48:22.524Z,27.89
2023-05-05T12:49:22.695Z,27.91
2023-05-05T12:50:22.785Z,27.93
2023-05-05T12:51:22.739Z,27.91
2023-05-05T12:52:22.813Z,27.91
2023-05-05T12:53:22.896Z,27.80
2023-05-05T12:54:22.964Z,27.91
2023-05-05T12:55:23.287Z,27.88
2023-05-05T12:56:23.068Z,27.91
2023-05-05T12:57:23.127Z,27.83
2023-05-05T12:58:23.210Z,27.84
2023-05-05T12:59:23.345Z,27.88
2023-05-05T13:00:23.330Z,27.87
2023-05-05T13:01:23.512Z,27.84
2023-05-05T13:02:23.534Z,27.82
2023-05-05T13:03:23.713Z,27.84
2023-05-05T13:04:23.581Z,27.84
2023-05-05T13:05:23.911Z,27.89
2023-05-05T13:06:23.659Z,27.95
2023-05-05T13:07:23.717Z,27.98
2023-05-05T13:08:23.785Z,27.98
2023-05-05T13:09:23.834Z,28.05
2023-05-05T13:10:23.881Z,28.32
2023-05-05T13:11:23.940Z,28.39
2023-05-05T13:12:25.221Z,29.04
2023-05-05T13:13:24.050Z,29.34
2023-05-05T13:14:24.110Z,29.52
2023-05-05T13:15:24.191Z,29.48
2023-05-05T13:16:24.336Z,29.78
2023-05-05T13:17:24.338Z,31.36
2023-05-05T13:18:24.372Z,32.06
2023-05-05T13:19:24.414Z,31.52
2023-05-05T13:20:24.473Z,32.35
2023-05-05T13:21:24.671Z,32.55
2023-05-05T13:22:24.615Z,31.60
2023-05-05T13:23:25.921Z,32.37
2023-05-05T13:24:31.656Z,31.73
2023-05-05T13:25:24.796Z,31.98
2023-05-05T13:26:24.727Z,31.50
2023-05-05T13:27:27.916Z,31.61
2023-05-05T13:28:24.730Z,31.16
2023-05-05T13:29:29.546Z,30.94
2023-05-05T13:30:24.725Z,30.94
2023-05-05T13:31:24.770Z,30.93
2023-05-05T13:32:24.743Z,30.90
2023-05-05T13:33:24.688Z,31.02
2023-05-05T13:34:24.703Z,31.14
2023-05-05T13:35:24.688Z,31.15
2023-05-05T13:36:24.701Z,31.12
2023-05-05T13:37:24.803Z,31.08
2023-05-05T13:38:24.678Z,31.10
2023-05-05T13:39:24.668Z,31.19
2023-05-05T13:40:25.956Z,31.19
2023-05-05T13:41:24.673Z,31.07
2023-05-05T13:42:24.680Z,31.09
2023-05-05T13:43:24.730Z,31.05
2023-05-05T13:44:24.778Z,31.07
2023-05-05T13:45:24.823Z,31.00
2023-05-05T13:46:24.970Z,31.00
2023-05-05T13:47:25.062Z,30.78
2023-05-05T13:48:25.308Z,30.70
2023-05-05T13:49:25.071Z,30.80
2023-05-05T13:50:25.074Z,30.79
2023-05-05T13:51:25.125Z,30.58
2023-05-05T13:52:25.158Z,30.61
2023-05-05T13:53:25.364Z,30.64
2023-05-05T13:54:25.231Z,30.44
2023-05-05T13:55:25.226Z,30.37
2023-05-05T13:56:25.302Z,30.31
2023-05-05T13:57:25.266Z,30.33
2023-05-05T13:58:25.336Z,30.24
2023-05-05T13:59:25.312Z,30.24
2023-05-05T14:00:25.740Z,30.20
2023-05-05T14:01:25.337Z,30.18
2023-05-05T14:02:25.520Z,30.11
2023-05-05T14:03:25.413Z,30.01
2023-05-05T14:04:25.599Z,30.13
2023-05-05T14:05:25.459Z,30.18
2023-05-05T14:06:25.480Z,30.06
2023-05-05T14:07:25.481Z,30.02
2023-05-05T14:08:25.524Z,29.91
2023-05-05T14:09:26.066Z,29.95
2023-05-05T14:10:25.497Z,30.06
2023-05-05T14:11:25.460Z,30.08
2023-05-05T14:12:25.453Z,29.99
2023-05-05T14:13:25.451Z,30.01
2023-05-05T14:14:25.443Z,29.94
2023-05-05T14:15:25.825Z,29.85
2023-05-05T14:16:25.492Z,29.88
2023-05-05T14:17:25.534Z,29.81
2023-05-05T14:18:25.481Z,29.68
2023-05-05T14:19:25.488Z,29.67
2023-05-05T14:20:25.473Z,29.64
2023-05-05T14:21:25.499Z,29.52
2023-05-05T14:22:25.497Z,29.53
2023-05-05T14:23:25.484Z,29.48
2023-05-05T14:24:25.485Z,29.45
2023-05-05T14:25:25.617Z,29.45
2023-05-05T14:26:25.474Z,29.45
2023-05-05T14:27:25.463Z,29.39
2023-05-05T14:28:25.513Z,29.45
2023-05-05T14:29:25.454Z,29.48
2023-05-05T14:30:25.444Z,29.39
2023-05-05T14:31:25.490Z,29.36
2023-05-05T14:32:25.485Z,29.31
2023-05-05T14:33:25.433Z,29.37
2023-05-05T14:34:25.819Z,29.23
2023-05-05T14:35:25.432Z,29.28
2023-05-05T14:36:25.447Z,29.26
2023-05-05T14:37:25.450Z,29.29
2023-05-05T14:38:25.485Z,29.18
2023-05-05T14:39:25.818Z,29.15
2023-05-05T14:40:25.461Z,29.22
2023-05-05T14:41:25.554Z,29.25
2023-05-05T14:42:25.463Z,29.14
2023-05-05T14:43:25.471Z,29.14
2023-05-05T14:44:25.820Z,29.18
2023-05-05T14:45:25.474Z,29.07
2023-05-05T14:46:25.891Z,29.11
2023-05-05T14:47:25.515Z,29.04
2023-05-05T14:48:25.493Z,28.98
2023-05-05T14:49:25.487Z,28.95
2023-05-05T14:50:25.523Z,28.98
2023-05-05T14:51:25.493Z,29.00
2023-05-05T14:52:25.503Z,28.99
2023-05-05T14:53:25.504Z,28.97
2023-05-05T14:54:28.612Z,28.87
2023-05-05T14:55:25.522Z,28.91
2023-05-05T14:56:25.515Z,28.84
2023-05-05T14:57:25.588Z,28.90
2023-05-05T14:58:25.522Z,28.87
2023-05-05T14:59:25.512Z,28.88
2023-05-05T15:00:25.525Z,28.81
2023-05-05T15:01:25.563Z,28.88
2023-05-05T15:02:25.627Z,28.80
2023-05-05T15:03:25.654Z,28.81
2023-05-05T15:04:25.515Z,28.87
2023-05-05T15:05:25.883Z,28.81
2023-05-05T15:06:25.508Z,28.82
2023-05-05T15:07:25.503Z,28.80
2023-05-05T15:08:25.497Z,28.81
2023-05-05T15:09:25.484Z,28.81
2023-05-05T15:10:25.502Z,28.79
2023-05-05T15:11:25.488Z,28.84
2023-05-05T15:12:25.485Z,28.77
2023-05-05T15:13:25.503Z,28.81
2023-05-05T15:14:25.476Z,28.82
2023-05-05T15:15:25.462Z,28.74
2023-05-05T15:16:25.486Z,28.81
2023-05-05T15:17:25.506Z,28.81
2023-05-05T15:18:25.471Z,28.79
2023-05-05T15:19:25.468Z,28.78
2023-05-05T15:20:25.477Z,28.80
2023-05-05T15:21:25.482Z,28.78
2023-05-05T15:22:25.462Z,28.76
2023-05-05T15:23:25.457Z,28.71
2023-05-05T15:24:25.462Z,28.72
2023-05-05T15:25:25.465Z,28.72
2023-05-05T15:26:25.474Z,28.66
2023-05-05T15:27:25.463Z,28.68
2023-05-05T15:28:25.471Z,28.73
2023-05-05T15:29:26.020Z,28.76
2023-05-05T15:30:25.453Z,28.70
2023-05-05T15:31:25.524Z,28.74
2023-05-05T15:32:25.559Z,28.78
2023-05-05T15:33:25.446Z,28.85
2023-05-05T15:34:25.435Z,28.81
2023-05-05T15:35:25.440Z,28.76
2023-05-05T15:36:25.429Z,28.83
2023-05-05T15:37:25.430Z,28.81
2023-05-05T15:38:25.435Z,28.79
2023-05-05T15:39:25.519Z,28.79
2023-05-05T15:40:25.507Z,28.87
2023-05-05T15:41:25.544Z,28.86
2023-05-05T15:42:25.583Z,28.85
2023-05-05T15:43:25.620Z,28.93
2023-05-05T15:44:25.670Z,28.86
2023-05-05T15:45:25.825Z,28.92
2023-05-05T15:46:25.778Z,28.94
2023-05-05T15:47:25.809Z,28.97
2023-05-05T15:48:25.797Z,28.96
2023-05-05T15:49:25.837Z,28.92
2023-05-05T15:50:25.872Z,28.99
2023-05-05T15:51:25.914Z,29.00
2023-05-05T15:52:25.960Z,29.01
2023-05-05T15:53:25.988Z,29.02
2023-05-05T15:54:26.041Z,29.01
2023-05-05T15:55:26.105Z,29.05
2023-05-05T15:56:26.132Z,29.05
2023-05-05T15:57:26.159Z,29.02
2023-05-05T15:58:26.211Z,29.03
2023-05-05T15:59:26.242Z,29.04
2023-05-05T16:00:26.281Z,29.09
2023-05-05T16:01:26.485Z,29.06
2023-05-05T16:02:26.462Z,29.12
2023-05-05T16:03:26.477Z,29.06
2023-05-05T16:04:26.520Z,29.12
2023-05-05T16:05:26.508Z,29.10
2023-05-05T16:06:26.541Z,29.09
2023-05-05T16:07:26.892Z,29.14
2023-05-05T16:08:26.881Z,29.11
2023-05-05T16:09:26.722Z,29.13
2023-05-05T16:10:26.727Z,29.11
2023-05-05T16:11:26.785Z,29.13
2023-05-05T16:12:26.820Z,29.15
2023-05-05T16:13:26.872Z,29.18
2023-05-05T16:14:26.906Z,29.15
2023-05-05T16:15:26.957Z,29.17
2023-05-05T16:16:27.033Z,29.17
2023-05-05T16:17:27.258Z,29.23
2023-05-05T16:18:27.140Z,29.22
2023-05-05T16:19:30.385Z,29.18
2023-05-05T16:20:27.167Z,29.26
2023-05-05T16:21:27.166Z,29.22
2023-05-05T16:22:27.168Z,29.22
2023-05-05T16:23:27.183Z,29.24
2023-05-05T16:24:27.185Z,29.27
2023-05-05T16:25:27.203Z,29.30
2023-05-05T16:26:27.222Z,29.24
2023-05-05T16:27:27.209Z,29.27
2023-05-05T16:28:27.227Z,29.31
2023-05-05T16:29:27.225Z,29.30
2023-05-05T16:30:27.237Z,29.31
2023-05-05T16:31:27.243Z,29.34
2023-05-05T16:32:27.302Z,29.28
2023-05-05T16:33:27.285Z,29.37
2023-05-05T16:34:27.272Z,29.35
2023-05-05T16:35:27.283Z,29.38
2023-05-05T16:36:27.298Z,29.41
2023-05-05T16:37:27.300Z,29.39
2023-05-05T16:38:27.313Z,29.40
2023-05-05T16:39:27.323Z,29.42
2023-05-05T16:40:27.334Z,29.42
2023-05-05T16:41:27.416Z,29.42
2023-05-05T16:42:27.370Z,29.46
2023-05-05T16:43:27.378Z,29.47
2023-05-05T16:44:27.408Z,29.44
2023-05-05T16:45:28.219Z,29.44
2023-05-05T16:46:27.443Z,29.44
2023-05-05T16:47:27.462Z,29.44
2023-05-05T16:48:27.497Z,29.48
2023-05-05T16:49:27.709Z,29.48
2023-05-05T16:50:27.624Z,29.51
2023-05-05T16:51:27.692Z,29.57
2023-05-05T16:52:27.755Z,29.57
2023-05-05T16:53:27.800Z,29.56
2023-05-05T16:54:27.878Z,29.56
2023-05-05T16:55:27.933Z,29.55
2023-05-05T16:56:28.009Z,29.62
2023-05-05T16:57:28.064Z,29.61
2023-05-05T16:58:28.158Z,29.62
2023-05-05T16:59:30.286Z,29.61
2023-05-05T17:00:28.207Z,29.63
2023-05-05T17:01:28.227Z,29.62
2023-05-05T17:02:28.878Z,29.63
2023-05-05T17:03:28.249Z,29.64
2023-05-05T17:04:28.260Z,29.63
2023-05-05T17:05:28.482Z,29.70
2023-05-05T17:06:28.297Z,29.70
2023-05-05T17:07:28.311Z,29.69
2023-05-05T17:08:28.315Z,29.70
2023-05-05T17:09:28.334Z,29.70
2023-05-05T17:10:28.342Z,29.71
2023-05-05T17:11:28.353Z,29.75
2023-05-05T17:12:28.358Z,29.72
2023-05-05T17:13:28.373Z,29.75
2023-05-05T17:14:28.359Z,29.79
2023-05-05T17:15:28.357Z,29.76
2023-05-05T17:16:28.474Z,29.76
2023-05-05T17:17:28.517Z,29.79
2023-05-05T17:18:28.567Z,29.84
2023-05-05T17:19:28.649Z,29.86
2023-05-05T17:20:28.714Z,29.83
2023-05-05T17:21:28.894Z,29.83
2023-05-05T17:22:28.870Z,29.86
2023-05-05T17:23:28.943Z,29.86
2023-05-05T17:24:29.025Z,29.85
2023-05-05T17:25:29.100Z,29.87
2023-05-05T17:26:29.175Z,29.92
2023-05-05T17:27:29.254Z,29.92
2023-05-05T17:28:29.333Z,29.87
2023-05-05T17:29:29.425Z,29.87
2023-05-05T17:30:29.490Z,29.91
2023-05-05T17:31:29.565Z,29.96
2023-05-05T17:32:29.687Z,29.96
2023-05-05T17:33:29.723Z,29.93
2023-05-05T17:34:29.795Z,29.95
2023-05-05T17:35:29.865Z,29.99
2023-05-05T17:36:29.952Z,30.00
2023-05-05T17:37:30.136Z,29.97
2023-05-05T17:38:30.105Z,30.02
2023-05-05T17:39:30.192Z,30.04
2023-05-05T17:40:30.501Z,30.01
2023-05-05T17:41:31.158Z,30.00
2023-05-05T17:42:31.115Z,30.04
2023-05-05T17:43:30.718Z,30.08
2023-05-05T17:44:31.202Z,30.01
2023-05-05T17:45:31.043Z,30.09
2023-05-05T17:46:31.151Z,30.08
2023-05-05T17:47:31.090Z,30.11
2023-05-05T17:48:30.865Z,30.08
2023-05-05T17:49:30.897Z,30.12
2023-05-05T17:50:30.967Z,30.11
2023-05-05T17:51:30.956Z,30.12
2023-05-05T17:52:30.973Z,30.07
2023-05-05T17:53:31.088Z,30.13
2023-05-05T17:54:31.016Z,30.17
2023-05-05T17:55:31.035Z,30.13
2023-05-05T17:56:31.048Z,30.19
2023-05-05T17:57:31.057Z,30.17
2023-05-05T17:58:31.076Z,30.16
2023-05-05T17:59:31.097Z,30.23
2023-05-05T18:00:31.124Z,30.21
2023-05-05T18:01:31.190Z,30.21
2023-05-05T18:02:31.259Z,30.24
2023-05-05T18:03:31.422Z,30.24
2023-05-05T18:04:31.208Z,30.25
2023-05-05T18:05:31.225Z,30.25
2023-05-05T18:06:31.268Z,30.25
2023-05-05T18:07:31.289Z,30.32
2023-05-05T18:08:31.314Z,30.21
2023-05-05T18:09:31.353Z,30.25
2023-05-05T18:10:31.353Z,30.28
2023-05-05T18:11:31.398Z,30.32
2023-05-05T18:12:31.447Z,30.35
2023-05-05T18:13:31.413Z,30.32
2023-05-05T18:14:31.441Z,30.32
2023-05-05T18:15:31.489Z,30.36
2023-05-05T18:16:31.498Z,30.35
2023-05-05T18:17:31.527Z,30.36
2023-05-05T18:18:31.593Z,30.38
2023-05-05T18:19:31.573Z,30.40
2023-05-05T18:20:31.615Z,30.41
2023-05-05T18:21:31.655Z,30.38